<?xml version="1.0" encoding="UTF-8" standalone="no" ?>
<gpx xmlns="http://www.topografix.com/GPX/1/1" xmlns:xsi="http://www.w3.org/2001/XMLSchema-instance" xsi:schemaLocation="http://www.topografix.com/GPX/1/1 http://www.topografix.com/GPX/1/1/gpx.xsd" version="1.1" creator="VisuGPX - https://www.visugpx.com">
  <metadata>
    <name>Rando VTT de St Valéry à Cayeux</name>
    <desc><![CDATA[Balade de 2h route et chemin]]></desc>
  </metadata>
  <trk>
    <name><![CDATA[ACTIVE LOG: 29 MAI 2014 17:02]]></name>
    <trkseg>
      <trkpt lat="50.17423" lon="1.64337">
        <ele>17.44</ele>
        <time>2014-05-29T15:02:23Z</time>
      </trkpt>
      <trkpt lat="50.17419" lon="1.64334">
        <ele>18.88</ele>
        <time>2014-05-29T15:03:02Z</time>
      </trkpt>
      <trkpt lat="50.17419" lon="1.64335">
        <ele>18.88</ele>
        <time>2014-05-29T15:03:17Z</time>
      </trkpt>
      <trkpt lat="50.1742" lon="1.64337">
        <ele>19.36</ele>
        <time>2014-05-29T15:03:23Z</time>
      </trkpt>
      <trkpt lat="50.17422" lon="1.64343">
        <ele>19.36</ele>
        <time>2014-05-29T15:03:40Z</time>
      </trkpt>
      <trkpt lat="50.17421" lon="1.64338">
        <ele>19.36</ele>
        <time>2014-05-29T15:03:47Z</time>
      </trkpt>
      <trkpt lat="50.17422" lon="1.64338">
        <ele>19.36</ele>
        <time>2014-05-29T15:04:06Z</time>
      </trkpt>
      <trkpt lat="50.17423" lon="1.64339">
        <ele>19.84</ele>
        <time>2014-05-29T15:04:16Z</time>
      </trkpt>
      <trkpt lat="50.17426" lon="1.64344">
        <ele>21.77</ele>
        <time>2014-05-29T15:04:30Z</time>
      </trkpt>
      <trkpt lat="50.17426" lon="1.64344">
        <ele>21.77</ele>
        <time>2014-05-29T15:05:22Z</time>
      </trkpt>
    </trkseg>
  </trk>
  <trk>
    <name><![CDATA[29-MAI-14: 29 MAI 2014 15:00]]></name>
    <trkseg>
      <trkpt lat="50.1743" lon="1.64381">
        <ele>28.02</ele>
        <time>2014-05-29T13:00:26Z</time>
      </trkpt>
      <trkpt lat="50.17433" lon="1.64381">
        <ele>28.02</ele>
        <time>2014-05-29T13:00:28Z</time>
      </trkpt>
      <trkpt lat="50.17471" lon="1.6437">
        <ele>27.53</ele>
        <time>2014-05-29T13:00:44Z</time>
      </trkpt>
      <trkpt lat="50.17538" lon="1.64347">
        <ele>27.05</ele>
        <time>2014-05-29T13:01:04Z</time>
      </trkpt>
      <trkpt lat="50.17628" lon="1.64314">
        <ele>21.77</ele>
        <time>2014-05-29T13:01:20Z</time>
      </trkpt>
      <trkpt lat="50.17744" lon="1.64301">
        <ele>11.67</ele>
        <time>2014-05-29T13:01:38Z</time>
      </trkpt>
      <trkpt lat="50.17754" lon="1.64301">
        <ele>11.19</ele>
        <time>2014-05-29T13:01:41Z</time>
      </trkpt>
      <trkpt lat="50.17827" lon="1.64342">
        <ele>9.75</ele>
        <time>2014-05-29T13:01:55Z</time>
      </trkpt>
      <trkpt lat="50.17928" lon="1.64368">
        <ele>10.23</ele>
        <time>2014-05-29T13:02:12Z</time>
      </trkpt>
      <trkpt lat="50.1799" lon="1.64383">
        <ele>7.83</ele>
        <time>2014-05-29T13:02:25Z</time>
      </trkpt>
      <trkpt lat="50.18005" lon="1.64389">
        <ele>7.83</ele>
        <time>2014-05-29T13:02:28Z</time>
      </trkpt>
      <trkpt lat="50.18053" lon="1.644">
        <ele>11.19</ele>
        <time>2014-05-29T13:02:41Z</time>
      </trkpt>
      <trkpt lat="50.18091" lon="1.64409">
        <ele>10.23</ele>
        <time>2014-05-29T13:02:54Z</time>
      </trkpt>
      <trkpt lat="50.181" lon="1.64411">
        <ele>9.27</ele>
        <time>2014-05-29T13:02:56Z</time>
      </trkpt>
      <trkpt lat="50.18192" lon="1.64389">
        <ele>8.31</ele>
        <time>2014-05-29T13:03:14Z</time>
      </trkpt>
      <trkpt lat="50.18293" lon="1.64351">
        <ele>8.79</ele>
        <time>2014-05-29T13:03:32Z</time>
      </trkpt>
      <trkpt lat="50.18312" lon="1.64357">
        <ele>9.27</ele>
        <time>2014-05-29T13:03:36Z</time>
      </trkpt>
      <trkpt lat="50.18329" lon="1.64372">
        <ele>9.27</ele>
        <time>2014-05-29T13:03:40Z</time>
      </trkpt>
      <trkpt lat="50.18398" lon="1.64368">
        <ele>8.79</ele>
        <time>2014-05-29T13:03:56Z</time>
      </trkpt>
      <trkpt lat="50.18409" lon="1.6437">
        <ele>9.27</ele>
        <time>2014-05-29T13:04:11Z</time>
      </trkpt>
      <trkpt lat="50.1845" lon="1.64389">
        <ele>9.75</ele>
        <time>2014-05-29T13:04:23Z</time>
      </trkpt>
      <trkpt lat="50.18495" lon="1.64381">
        <ele>8.79</ele>
        <time>2014-05-29T13:04:37Z</time>
      </trkpt>
      <trkpt lat="50.18546" lon="1.64331">
        <ele>7.83</ele>
        <time>2014-05-29T13:04:55Z</time>
      </trkpt>
      <trkpt lat="50.18561" lon="1.64306">
        <ele>7.35</ele>
        <time>2014-05-29T13:05:00Z</time>
      </trkpt>
      <trkpt lat="50.18598" lon="1.64177">
        <ele>5.91</ele>
        <time>2014-05-29T13:05:21Z</time>
      </trkpt>
      <trkpt lat="50.186" lon="1.64166">
        <ele>5.91</ele>
        <time>2014-05-29T13:05:35Z</time>
      </trkpt>
      <trkpt lat="50.18608" lon="1.64143">
        <ele>7.35</ele>
        <time>2014-05-29T13:05:48Z</time>
      </trkpt>
      <trkpt lat="50.18626" lon="1.6408">
        <ele>7.83</ele>
        <time>2014-05-29T13:06:05Z</time>
      </trkpt>
      <trkpt lat="50.18638" lon="1.64029">
        <ele>8.79</ele>
        <time>2014-05-29T13:06:20Z</time>
      </trkpt>
      <trkpt lat="50.18647" lon="1.63988">
        <ele>9.27</ele>
        <time>2014-05-29T13:06:34Z</time>
      </trkpt>
      <trkpt lat="50.18675" lon="1.63894">
        <ele>8.31</ele>
        <time>2014-05-29T13:06:52Z</time>
      </trkpt>
      <trkpt lat="50.18688" lon="1.63812">
        <ele>9.27</ele>
        <time>2014-05-29T13:07:11Z</time>
      </trkpt>
      <trkpt lat="50.18671" lon="1.63804">
        <ele>9.27</ele>
        <time>2014-05-29T13:07:16Z</time>
      </trkpt>
      <trkpt lat="50.18666" lon="1.6378">
        <ele>8.31</ele>
        <time>2014-05-29T13:07:21Z</time>
      </trkpt>
      <trkpt lat="50.18673" lon="1.63754">
        <ele>7.83</ele>
        <time>2014-05-29T13:07:25Z</time>
      </trkpt>
      <trkpt lat="50.18696" lon="1.63613">
        <ele>6.87</ele>
        <time>2014-05-29T13:07:41Z</time>
      </trkpt>
      <trkpt lat="50.18741" lon="1.63456">
        <ele>6.39</ele>
        <time>2014-05-29T13:08:00Z</time>
      </trkpt>
      <trkpt lat="50.18763" lon="1.63385">
        <ele>5.42</ele>
        <time>2014-05-29T13:08:13Z</time>
      </trkpt>
      <trkpt lat="50.18791" lon="1.63282">
        <ele>6.39</ele>
        <time>2014-05-29T13:08:27Z</time>
      </trkpt>
      <trkpt lat="50.18825" lon="1.63184">
        <ele>8.31</ele>
        <time>2014-05-29T13:08:41Z</time>
      </trkpt>
      <trkpt lat="50.18849" lon="1.63199">
        <ele>7.35</ele>
        <time>2014-05-29T13:08:49Z</time>
      </trkpt>
      <trkpt lat="50.1887" lon="1.63216">
        <ele>4.94</ele>
        <time>2014-05-29T13:08:55Z</time>
      </trkpt>
      <trkpt lat="50.18892" lon="1.63164">
        <ele>2.54</ele>
        <time>2014-05-29T13:09:08Z</time>
      </trkpt>
      <trkpt lat="50.18905" lon="1.6313">
        <ele>3.98</ele>
        <time>2014-05-29T13:09:20Z</time>
      </trkpt>
      <trkpt lat="50.18924" lon="1.6305">
        <ele>3.98</ele>
        <time>2014-05-29T13:09:33Z</time>
      </trkpt>
      <trkpt lat="50.18969" lon="1.6292">
        <ele>7.35</ele>
        <time>2014-05-29T13:09:53Z</time>
      </trkpt>
      <trkpt lat="50.18982" lon="1.62887">
        <ele>8.31</ele>
        <time>2014-05-29T13:09:58Z</time>
      </trkpt>
      <trkpt lat="50.18997" lon="1.62834">
        <ele>9.75</ele>
        <time>2014-05-29T13:10:06Z</time>
      </trkpt>
      <trkpt lat="50.19016" lon="1.62759">
        <ele>7.35</ele>
        <time>2014-05-29T13:10:21Z</time>
      </trkpt>
      <trkpt lat="50.19008" lon="1.62692">
        <ele>8.31</ele>
        <time>2014-05-29T13:10:37Z</time>
      </trkpt>
      <trkpt lat="50.18973" lon="1.62666">
        <ele>8.31</ele>
        <time>2014-05-29T13:10:49Z</time>
      </trkpt>
      <trkpt lat="50.1896" lon="1.62658">
        <ele>8.79</ele>
        <time>2014-05-29T13:10:53Z</time>
      </trkpt>
      <trkpt lat="50.18947" lon="1.62647">
        <ele>8.79</ele>
        <time>2014-05-29T13:10:56Z</time>
      </trkpt>
      <trkpt lat="50.18932" lon="1.62581">
        <ele>8.31</ele>
        <time>2014-05-29T13:11:05Z</time>
      </trkpt>
      <trkpt lat="50.18937" lon="1.62448">
        <ele>7.35</ele>
        <time>2014-05-29T13:11:18Z</time>
      </trkpt>
      <trkpt lat="50.1893" lon="1.62263">
        <ele>5.91</ele>
        <time>2014-05-29T13:11:35Z</time>
      </trkpt>
      <trkpt lat="50.18958" lon="1.62093">
        <ele>7.35</ele>
        <time>2014-05-29T13:11:52Z</time>
      </trkpt>
      <trkpt lat="50.18995" lon="1.61945">
        <ele>9.75</ele>
        <time>2014-05-29T13:12:09Z</time>
      </trkpt>
      <trkpt lat="50.19014" lon="1.6186">
        <ele>11.67</ele>
        <time>2014-05-29T13:12:19Z</time>
      </trkpt>
      <trkpt lat="50.19048" lon="1.6169">
        <ele>8.79</ele>
        <time>2014-05-29T13:12:39Z</time>
      </trkpt>
      <trkpt lat="50.19072" lon="1.61626">
        <ele>10.23</ele>
        <time>2014-05-29T13:12:48Z</time>
      </trkpt>
      <trkpt lat="50.19078" lon="1.61604">
        <ele>9.75</ele>
        <time>2014-05-29T13:12:51Z</time>
      </trkpt>
      <trkpt lat="50.19121" lon="1.61514">
        <ele>9.27</ele>
        <time>2014-05-29T13:13:04Z</time>
      </trkpt>
      <trkpt lat="50.19126" lon="1.61506">
        <ele>9.75</ele>
        <time>2014-05-29T13:13:05Z</time>
      </trkpt>
      <trkpt lat="50.1913" lon="1.61488">
        <ele>9.27</ele>
        <time>2014-05-29T13:13:07Z</time>
      </trkpt>
      <trkpt lat="50.19145" lon="1.61357">
        <ele>7.35</ele>
        <time>2014-05-29T13:13:21Z</time>
      </trkpt>
      <trkpt lat="50.19138" lon="1.61278">
        <ele>7.83</ele>
        <time>2014-05-29T13:13:32Z</time>
      </trkpt>
      <trkpt lat="50.19141" lon="1.61244">
        <ele>6.87</ele>
        <time>2014-05-29T13:13:45Z</time>
      </trkpt>
      <trkpt lat="50.19132" lon="1.61199">
        <ele>5.91</ele>
        <time>2014-05-29T13:13:58Z</time>
      </trkpt>
      <trkpt lat="50.19111" lon="1.61128">
        <ele>5.42</ele>
        <time>2014-05-29T13:14:10Z</time>
      </trkpt>
      <trkpt lat="50.19083" lon="1.61059">
        <ele>5.42</ele>
        <time>2014-05-29T13:14:24Z</time>
      </trkpt>
      <trkpt lat="50.19055" lon="1.61012">
        <ele>5.42</ele>
        <time>2014-05-29T13:14:33Z</time>
      </trkpt>
      <trkpt lat="50.19023" lon="1.609">
        <ele>5.42</ele>
        <time>2014-05-29T13:14:49Z</time>
      </trkpt>
      <trkpt lat="50.19005" lon="1.60853">
        <ele>5.42</ele>
        <time>2014-05-29T13:14:56Z</time>
      </trkpt>
      <trkpt lat="50.18988" lon="1.60806">
        <ele>5.42</ele>
        <time>2014-05-29T13:15:03Z</time>
      </trkpt>
      <trkpt lat="50.18945" lon="1.6069">
        <ele>5.91</ele>
        <time>2014-05-29T13:15:22Z</time>
      </trkpt>
      <trkpt lat="50.18896" lon="1.60576">
        <ele>5.42</ele>
        <time>2014-05-29T13:15:45Z</time>
      </trkpt>
      <trkpt lat="50.18866" lon="1.60516">
        <ele>5.91</ele>
        <time>2014-05-29T13:16:00Z</time>
      </trkpt>
      <trkpt lat="50.18836" lon="1.60418">
        <ele>4.94</ele>
        <time>2014-05-29T13:16:16Z</time>
      </trkpt>
      <trkpt lat="50.18819" lon="1.60373">
        <ele>5.42</ele>
        <time>2014-05-29T13:16:23Z</time>
      </trkpt>
      <trkpt lat="50.18808" lon="1.60355">
        <ele>5.42</ele>
        <time>2014-05-29T13:16:26Z</time>
      </trkpt>
      <trkpt lat="50.18759" lon="1.6022">
        <ele>5.42</ele>
        <time>2014-05-29T13:16:46Z</time>
      </trkpt>
      <trkpt lat="50.18709" lon="1.60085">
        <ele>6.39</ele>
        <time>2014-05-29T13:17:07Z</time>
      </trkpt>
      <trkpt lat="50.18701" lon="1.60059">
        <ele>6.39</ele>
        <time>2014-05-29T13:17:11Z</time>
      </trkpt>
      <trkpt lat="50.1869" lon="1.60036">
        <ele>6.39</ele>
        <time>2014-05-29T13:17:15Z</time>
      </trkpt>
      <trkpt lat="50.18649" lon="1.59937">
        <ele>6.87</ele>
        <time>2014-05-29T13:17:32Z</time>
      </trkpt>
      <trkpt lat="50.186" lon="1.59815">
        <ele>6.39</ele>
        <time>2014-05-29T13:17:52Z</time>
      </trkpt>
      <trkpt lat="50.18596" lon="1.59804">
        <ele>6.39</ele>
        <time>2014-05-29T13:17:54Z</time>
      </trkpt>
      <trkpt lat="50.18591" lon="1.59782">
        <ele>6.39</ele>
        <time>2014-05-29T13:17:57Z</time>
      </trkpt>
      <trkpt lat="50.18576" lon="1.59733">
        <ele>6.39</ele>
        <time>2014-05-29T13:18:04Z</time>
      </trkpt>
      <trkpt lat="50.18527" lon="1.5957">
        <ele>6.39</ele>
        <time>2014-05-29T13:18:27Z</time>
      </trkpt>
      <trkpt lat="50.18478" lon="1.59431">
        <ele>6.87</ele>
        <time>2014-05-29T13:18:47Z</time>
      </trkpt>
      <trkpt lat="50.18428" lon="1.59366">
        <ele>7.35</ele>
        <time>2014-05-29T13:19:03Z</time>
      </trkpt>
      <trkpt lat="50.184" lon="1.59321">
        <ele>7.35</ele>
        <time>2014-05-29T13:19:20Z</time>
      </trkpt>
      <trkpt lat="50.18381" lon="1.59287">
        <ele>7.83</ele>
        <time>2014-05-29T13:19:34Z</time>
      </trkpt>
      <trkpt lat="50.1837" lon="1.59246">
        <ele>7.83</ele>
        <time>2014-05-29T13:19:50Z</time>
      </trkpt>
      <trkpt lat="50.1837" lon="1.59244">
        <ele>8.31</ele>
        <time>2014-05-29T13:20:06Z</time>
      </trkpt>
      <trkpt lat="50.18368" lon="1.59244">
        <ele>8.31</ele>
        <time>2014-05-29T13:20:37Z</time>
      </trkpt>
      <trkpt lat="50.18379" lon="1.59184">
        <ele>6.87</ele>
        <time>2014-05-29T13:20:49Z</time>
      </trkpt>
      <trkpt lat="50.1839" lon="1.59094">
        <ele>5.42</ele>
        <time>2014-05-29T13:21:04Z</time>
      </trkpt>
      <trkpt lat="50.18385" lon="1.59085">
        <ele>5.42</ele>
        <time>2014-05-29T13:21:16Z</time>
      </trkpt>
      <trkpt lat="50.18383" lon="1.59083">
        <ele>5.42</ele>
        <time>2014-05-29T13:21:18Z</time>
      </trkpt>
      <trkpt lat="50.18377" lon="1.59042">
        <ele>3.98</ele>
        <time>2014-05-29T13:21:27Z</time>
      </trkpt>
      <trkpt lat="50.18392" lon="1.58926">
        <ele>3.5</ele>
        <time>2014-05-29T13:21:38Z</time>
      </trkpt>
      <trkpt lat="50.18428" lon="1.5871">
        <ele>0.62</ele>
        <time>2014-05-29T13:21:58Z</time>
      </trkpt>
      <trkpt lat="50.18458" lon="1.58476">
        <ele>0.14</ele>
        <time>2014-05-29T13:22:19Z</time>
      </trkpt>
      <trkpt lat="50.1849" lon="1.58231">
        <ele>3.02</ele>
        <time>2014-05-29T13:22:41Z</time>
      </trkpt>
      <trkpt lat="50.18544" lon="1.57974">
        <ele>3.5</ele>
        <time>2014-05-29T13:23:05Z</time>
      </trkpt>
      <trkpt lat="50.18626" lon="1.57759">
        <ele>3.5</ele>
        <time>2014-05-29T13:23:27Z</time>
      </trkpt>
      <trkpt lat="50.18705" lon="1.57557">
        <ele>3.5</ele>
        <time>2014-05-29T13:23:48Z</time>
      </trkpt>
      <trkpt lat="50.18802" lon="1.57313">
        <ele>4.46</ele>
        <time>2014-05-29T13:24:14Z</time>
      </trkpt>
      <trkpt lat="50.18892" lon="1.57053">
        <ele>4.46</ele>
        <time>2014-05-29T13:24:42Z</time>
      </trkpt>
      <trkpt lat="50.18898" lon="1.57014">
        <ele>4.46</ele>
        <time>2014-05-29T13:24:46Z</time>
      </trkpt>
      <trkpt lat="50.18922" lon="1.56941">
        <ele>5.42</ele>
        <time>2014-05-29T13:24:56Z</time>
      </trkpt>
      <trkpt lat="50.18952" lon="1.56787">
        <ele>5.91</ele>
        <time>2014-05-29T13:25:15Z</time>
      </trkpt>
      <trkpt lat="50.18993" lon="1.56572">
        <ele>5.91</ele>
        <time>2014-05-29T13:25:40Z</time>
      </trkpt>
      <trkpt lat="50.1904" lon="1.56336">
        <ele>5.91</ele>
        <time>2014-05-29T13:26:06Z</time>
      </trkpt>
      <trkpt lat="50.19072" lon="1.56175">
        <ele>4.46</ele>
        <time>2014-05-29T13:26:24Z</time>
      </trkpt>
      <trkpt lat="50.19096" lon="1.56141">
        <ele>4.46</ele>
        <time>2014-05-29T13:26:29Z</time>
      </trkpt>
      <trkpt lat="50.19207" lon="1.56055">
        <ele>6.87</ele>
        <time>2014-05-29T13:26:49Z</time>
      </trkpt>
      <trkpt lat="50.19334" lon="1.55954">
        <ele>8.31</ele>
        <time>2014-05-29T13:27:12Z</time>
      </trkpt>
      <trkpt lat="50.19458" lon="1.55836">
        <ele>7.35</ele>
        <time>2014-05-29T13:27:35Z</time>
      </trkpt>
      <trkpt lat="50.19527" lon="1.55776">
        <ele>7.35</ele>
        <time>2014-05-29T13:27:47Z</time>
      </trkpt>
      <trkpt lat="50.19544" lon="1.55748">
        <ele>7.35</ele>
        <time>2014-05-29T13:27:51Z</time>
      </trkpt>
      <trkpt lat="50.19565" lon="1.55738">
        <ele>7.83</ele>
        <time>2014-05-29T13:27:55Z</time>
      </trkpt>
      <trkpt lat="50.19649" lon="1.55663">
        <ele>7.35</ele>
        <time>2014-05-29T13:28:10Z</time>
      </trkpt>
      <trkpt lat="50.1975" lon="1.55596">
        <ele>7.35</ele>
        <time>2014-05-29T13:28:27Z</time>
      </trkpt>
      <trkpt lat="50.19883" lon="1.5548">
        <ele>7.35</ele>
        <time>2014-05-29T13:28:52Z</time>
      </trkpt>
      <trkpt lat="50.19945" lon="1.55422">
        <ele>7.83</ele>
        <time>2014-05-29T13:29:09Z</time>
      </trkpt>
      <trkpt lat="50.19952" lon="1.55416">
        <ele>7.83</ele>
        <time>2014-05-29T13:29:12Z</time>
      </trkpt>
      <trkpt lat="50.19971" lon="1.55442">
        <ele>7.83</ele>
        <time>2014-05-29T13:29:21Z</time>
      </trkpt>
      <trkpt lat="50.20038" lon="1.55504">
        <ele>9.27</ele>
        <time>2014-05-29T13:29:35Z</time>
      </trkpt>
      <trkpt lat="50.20145" lon="1.55566">
        <ele>9.27</ele>
        <time>2014-05-29T13:29:54Z</time>
      </trkpt>
      <trkpt lat="50.20321" lon="1.55648">
        <ele>10.71</ele>
        <time>2014-05-29T13:30:24Z</time>
      </trkpt>
      <trkpt lat="50.20497" lon="1.55725">
        <ele>10.71</ele>
        <time>2014-05-29T13:30:53Z</time>
      </trkpt>
      <trkpt lat="50.20533" lon="1.55742">
        <ele>10.71</ele>
        <time>2014-05-29T13:30:59Z</time>
      </trkpt>
      <trkpt lat="50.20625" lon="1.55712">
        <ele>10.71</ele>
        <time>2014-05-29T13:31:14Z</time>
      </trkpt>
      <trkpt lat="50.20754" lon="1.55652">
        <ele>10.23</ele>
        <time>2014-05-29T13:31:36Z</time>
      </trkpt>
      <trkpt lat="50.20872" lon="1.5565">
        <ele>8.79</ele>
        <time>2014-05-29T13:31:55Z</time>
      </trkpt>
      <trkpt lat="50.20896" lon="1.55658">
        <ele>9.27</ele>
        <time>2014-05-29T13:31:59Z</time>
      </trkpt>
      <trkpt lat="50.20911" lon="1.55669">
        <ele>9.27</ele>
        <time>2014-05-29T13:32:02Z</time>
      </trkpt>
      <trkpt lat="50.20941" lon="1.55678">
        <ele>9.27</ele>
        <time>2014-05-29T13:32:08Z</time>
      </trkpt>
      <trkpt lat="50.21042" lon="1.5577">
        <ele>9.27</ele>
        <time>2014-05-29T13:32:29Z</time>
      </trkpt>
      <trkpt lat="50.21147" lon="1.55858">
        <ele>9.27</ele>
        <time>2014-05-29T13:32:51Z</time>
      </trkpt>
      <trkpt lat="50.21265" lon="1.55967">
        <ele>8.79</ele>
        <time>2014-05-29T13:33:15Z</time>
      </trkpt>
      <trkpt lat="50.21342" lon="1.56122">
        <ele>9.27</ele>
        <time>2014-05-29T13:33:38Z</time>
      </trkpt>
      <trkpt lat="50.21387" lon="1.56263">
        <ele>9.27</ele>
        <time>2014-05-29T13:33:57Z</time>
      </trkpt>
      <trkpt lat="50.21424" lon="1.56422">
        <ele>8.79</ele>
        <time>2014-05-29T13:34:17Z</time>
      </trkpt>
      <trkpt lat="50.21475" lon="1.56592">
        <ele>9.27</ele>
        <time>2014-05-29T13:34:43Z</time>
      </trkpt>
      <trkpt lat="50.21501" lon="1.56635">
        <ele>9.27</ele>
        <time>2014-05-29T13:34:56Z</time>
      </trkpt>
      <trkpt lat="50.21529" lon="1.56613">
        <ele>9.27</ele>
        <time>2014-05-29T13:35:08Z</time>
      </trkpt>
      <trkpt lat="50.21574" lon="1.56583">
        <ele>9.75</ele>
        <time>2014-05-29T13:35:27Z</time>
      </trkpt>
      <trkpt lat="50.21621" lon="1.56557">
        <ele>8.31</ele>
        <time>2014-05-29T13:35:45Z</time>
      </trkpt>
      <trkpt lat="50.21662" lon="1.56525">
        <ele>8.31</ele>
        <time>2014-05-29T13:36:05Z</time>
      </trkpt>
      <trkpt lat="50.2167" lon="1.56517">
        <ele>8.31</ele>
        <time>2014-05-29T13:36:20Z</time>
      </trkpt>
      <trkpt lat="50.21675" lon="1.56514">
        <ele>8.79</ele>
        <time>2014-05-29T13:36:36Z</time>
      </trkpt>
      <trkpt lat="50.21679" lon="1.56514">
        <ele>8.31</ele>
        <time>2014-05-29T13:36:43Z</time>
      </trkpt>
      <trkpt lat="50.21685" lon="1.5651">
        <ele>8.79</ele>
        <time>2014-05-29T13:36:59Z</time>
      </trkpt>
      <trkpt lat="50.21685" lon="1.5651">
        <ele>8.79</ele>
        <time>2014-05-29T13:37:41Z</time>
      </trkpt>
      <trkpt lat="50.21683" lon="1.5651">
        <ele>8.79</ele>
        <time>2014-05-29T13:38:30Z</time>
      </trkpt>
      <trkpt lat="50.21683" lon="1.56512">
        <ele>7.35</ele>
        <time>2014-05-29T13:39:34Z</time>
      </trkpt>
      <trkpt lat="50.21681" lon="1.56514">
        <ele>7.35</ele>
        <time>2014-05-29T13:39:37Z</time>
      </trkpt>
      <trkpt lat="50.21677" lon="1.56517">
        <ele>7.83</ele>
        <time>2014-05-29T13:39:46Z</time>
      </trkpt>
      <trkpt lat="50.21675" lon="1.56514">
        <ele>8.31</ele>
        <time>2014-05-29T13:39:49Z</time>
      </trkpt>
      <trkpt lat="50.21668" lon="1.56521">
        <ele>8.79</ele>
        <time>2014-05-29T13:40:03Z</time>
      </trkpt>
      <trkpt lat="50.21668" lon="1.56523">
        <ele>8.79</ele>
        <time>2014-05-29T13:40:16Z</time>
      </trkpt>
      <trkpt lat="50.21628" lon="1.56551">
        <ele>7.35</ele>
        <time>2014-05-29T13:40:35Z</time>
      </trkpt>
      <trkpt lat="50.21587" lon="1.56577">
        <ele>7.35</ele>
        <time>2014-05-29T13:40:50Z</time>
      </trkpt>
      <trkpt lat="50.21557" lon="1.56581">
        <ele>9.27</ele>
        <time>2014-05-29T13:41:05Z</time>
      </trkpt>
      <trkpt lat="50.2155" lon="1.56564">
        <ele>9.27</ele>
        <time>2014-05-29T13:41:09Z</time>
      </trkpt>
      <trkpt lat="50.21507" lon="1.56426">
        <ele>10.71</ele>
        <time>2014-05-29T13:41:32Z</time>
      </trkpt>
      <trkpt lat="50.21475" lon="1.56328">
        <ele>10.23</ele>
        <time>2014-05-29T13:41:46Z</time>
      </trkpt>
      <trkpt lat="50.21473" lon="1.56291">
        <ele>10.23</ele>
        <time>2014-05-29T13:41:50Z</time>
      </trkpt>
      <trkpt lat="50.2149" lon="1.56111">
        <ele>8.79</ele>
        <time>2014-05-29T13:42:10Z</time>
      </trkpt>
      <trkpt lat="50.21499" lon="1.55989">
        <ele>8.31</ele>
        <time>2014-05-29T13:42:24Z</time>
      </trkpt>
      <trkpt lat="50.21492" lon="1.55793">
        <ele>7.83</ele>
        <time>2014-05-29T13:42:47Z</time>
      </trkpt>
      <trkpt lat="50.2149" lon="1.55701">
        <ele>7.83</ele>
        <time>2014-05-29T13:42:58Z</time>
      </trkpt>
      <trkpt lat="50.21492" lon="1.55551">
        <ele>7.83</ele>
        <time>2014-05-29T13:43:17Z</time>
      </trkpt>
      <trkpt lat="50.21494" lon="1.55472">
        <ele>8.31</ele>
        <time>2014-05-29T13:43:27Z</time>
      </trkpt>
      <trkpt lat="50.21497" lon="1.55416">
        <ele>8.31</ele>
        <time>2014-05-29T13:43:34Z</time>
      </trkpt>
      <trkpt lat="50.21497" lon="1.55392">
        <ele>8.31</ele>
        <time>2014-05-29T13:43:37Z</time>
      </trkpt>
      <trkpt lat="50.21499" lon="1.55302">
        <ele>8.79</ele>
        <time>2014-05-29T13:43:51Z</time>
      </trkpt>
      <trkpt lat="50.21499" lon="1.55223">
        <ele>7.83</ele>
        <time>2014-05-29T13:44:06Z</time>
      </trkpt>
      <trkpt lat="50.21497" lon="1.55158">
        <ele>7.83</ele>
        <time>2014-05-29T13:44:17Z</time>
      </trkpt>
      <trkpt lat="50.21475" lon="1.55017">
        <ele>7.35</ele>
        <time>2014-05-29T13:44:38Z</time>
      </trkpt>
      <trkpt lat="50.21437" lon="1.54847">
        <ele>7.35</ele>
        <time>2014-05-29T13:45:02Z</time>
      </trkpt>
      <trkpt lat="50.21392" lon="1.54633">
        <ele>7.83</ele>
        <time>2014-05-29T13:45:30Z</time>
      </trkpt>
      <trkpt lat="50.21351" lon="1.54442">
        <ele>8.79</ele>
        <time>2014-05-29T13:45:54Z</time>
      </trkpt>
      <trkpt lat="50.2134" lon="1.54405">
        <ele>8.79</ele>
        <time>2014-05-29T13:45:59Z</time>
      </trkpt>
      <trkpt lat="50.21284" lon="1.54251">
        <ele>7.83</ele>
        <time>2014-05-29T13:46:20Z</time>
      </trkpt>
      <trkpt lat="50.21207" lon="1.5404">
        <ele>6.87</ele>
        <time>2014-05-29T13:46:46Z</time>
      </trkpt>
      <trkpt lat="50.211" lon="1.53753">
        <ele>5.91</ele>
        <time>2014-05-29T13:47:17Z</time>
      </trkpt>
      <trkpt lat="50.21022" lon="1.53558">
        <ele>4.94</ele>
        <time>2014-05-29T13:47:40Z</time>
      </trkpt>
      <trkpt lat="50.20962" lon="1.5341">
        <ele>4.94</ele>
        <time>2014-05-29T13:47:58Z</time>
      </trkpt>
      <trkpt lat="50.20949" lon="1.53388">
        <ele>4.94</ele>
        <time>2014-05-29T13:48:01Z</time>
      </trkpt>
      <trkpt lat="50.20868" lon="1.53238">
        <ele>5.42</ele>
        <time>2014-05-29T13:48:21Z</time>
      </trkpt>
      <trkpt lat="50.20784" lon="1.53088">
        <ele>5.91</ele>
        <time>2014-05-29T13:48:42Z</time>
      </trkpt>
      <trkpt lat="50.20686" lon="1.5291">
        <ele>6.39</ele>
        <time>2014-05-29T13:49:08Z</time>
      </trkpt>
      <trkpt lat="50.20591" lon="1.52744">
        <ele>6.39</ele>
        <time>2014-05-29T13:49:32Z</time>
      </trkpt>
      <trkpt lat="50.2054" lon="1.52652">
        <ele>5.42</ele>
        <time>2014-05-29T13:49:48Z</time>
      </trkpt>
      <trkpt lat="50.2051" lon="1.52598">
        <ele>5.42</ele>
        <time>2014-05-29T13:49:59Z</time>
      </trkpt>
      <trkpt lat="50.20432" lon="1.52455">
        <ele>4.46</ele>
        <time>2014-05-29T13:50:17Z</time>
      </trkpt>
      <trkpt lat="50.20338" lon="1.52287">
        <ele>5.91</ele>
        <time>2014-05-29T13:50:40Z</time>
      </trkpt>
      <trkpt lat="50.20306" lon="1.52229">
        <ele>5.91</ele>
        <time>2014-05-29T13:50:49Z</time>
      </trkpt>
      <trkpt lat="50.20269" lon="1.52154">
        <ele>6.39</ele>
        <time>2014-05-29T13:51:05Z</time>
      </trkpt>
      <trkpt lat="50.20228" lon="1.52096">
        <ele>5.91</ele>
        <time>2014-05-29T13:51:17Z</time>
      </trkpt>
      <trkpt lat="50.20136" lon="1.51961">
        <ele>6.87</ele>
        <time>2014-05-29T13:51:35Z</time>
      </trkpt>
      <trkpt lat="50.20029" lon="1.51802">
        <ele>6.87</ele>
        <time>2014-05-29T13:51:55Z</time>
      </trkpt>
      <trkpt lat="50.19892" lon="1.51637">
        <ele>5.91</ele>
        <time>2014-05-29T13:52:18Z</time>
      </trkpt>
      <trkpt lat="50.19754" lon="1.5147">
        <ele>6.39</ele>
        <time>2014-05-29T13:52:41Z</time>
      </trkpt>
      <trkpt lat="50.19623" lon="1.51313">
        <ele>6.39</ele>
        <time>2014-05-29T13:53:04Z</time>
      </trkpt>
      <trkpt lat="50.19523" lon="1.51191">
        <ele>6.87</ele>
        <time>2014-05-29T13:53:24Z</time>
      </trkpt>
      <trkpt lat="50.19402" lon="1.5106">
        <ele>6.39</ele>
        <time>2014-05-29T13:53:48Z</time>
      </trkpt>
      <trkpt lat="50.19269" lon="1.50899">
        <ele>5.91</ele>
        <time>2014-05-29T13:54:16Z</time>
      </trkpt>
      <trkpt lat="50.19171" lon="1.50768">
        <ele>6.87</ele>
        <time>2014-05-29T13:54:39Z</time>
      </trkpt>
      <trkpt lat="50.19048" lon="1.50588">
        <ele>6.87</ele>
        <time>2014-05-29T13:55:08Z</time>
      </trkpt>
      <trkpt lat="50.18926" lon="1.50397">
        <ele>5.91</ele>
        <time>2014-05-29T13:55:37Z</time>
      </trkpt>
      <trkpt lat="50.18806" lon="1.5021">
        <ele>6.39</ele>
        <time>2014-05-29T13:56:06Z</time>
      </trkpt>
      <trkpt lat="50.18761" lon="1.50139">
        <ele>5.91</ele>
        <time>2014-05-29T13:56:18Z</time>
      </trkpt>
      <trkpt lat="50.18761" lon="1.50105">
        <ele>5.91</ele>
        <time>2014-05-29T13:56:23Z</time>
      </trkpt>
      <trkpt lat="50.18804" lon="1.50039">
        <ele>5.42</ele>
        <time>2014-05-29T13:56:39Z</time>
      </trkpt>
      <trkpt lat="50.18797" lon="1.50015">
        <ele>5.91</ele>
        <time>2014-05-29T13:56:43Z</time>
      </trkpt>
      <trkpt lat="50.18716" lon="1.49875">
        <ele>6.87</ele>
        <time>2014-05-29T13:57:09Z</time>
      </trkpt>
      <trkpt lat="50.18638" lon="1.49736">
        <ele>6.39</ele>
        <time>2014-05-29T13:57:35Z</time>
      </trkpt>
      <trkpt lat="50.18654" lon="1.49704">
        <ele>5.91</ele>
        <time>2014-05-29T13:57:46Z</time>
      </trkpt>
      <trkpt lat="50.18701" lon="1.49639">
        <ele>4.94</ele>
        <time>2014-05-29T13:58:09Z</time>
      </trkpt>
      <trkpt lat="50.18714" lon="1.4962">
        <ele>4.94</ele>
        <time>2014-05-29T13:58:22Z</time>
      </trkpt>
      <trkpt lat="50.18718" lon="1.49612">
        <ele>5.91</ele>
        <time>2014-05-29T13:59:21Z</time>
      </trkpt>
      <trkpt lat="50.18724" lon="1.49597">
        <ele>5.91</ele>
        <time>2014-05-29T13:59:41Z</time>
      </trkpt>
      <trkpt lat="50.18724" lon="1.49597">
        <ele>5.91</ele>
        <time>2014-05-29T13:59:53Z</time>
      </trkpt>
      <trkpt lat="50.18724" lon="1.49599">
        <ele>5.91</ele>
        <time>2014-05-29T14:00:02Z</time>
      </trkpt>
      <trkpt lat="50.18729" lon="1.49584">
        <ele>5.42</ele>
        <time>2014-05-29T14:00:12Z</time>
      </trkpt>
      <trkpt lat="50.18737" lon="1.49571">
        <ele>4.94</ele>
        <time>2014-05-29T14:00:27Z</time>
      </trkpt>
      <trkpt lat="50.18746" lon="1.49564">
        <ele>4.46</ele>
        <time>2014-05-29T14:00:41Z</time>
      </trkpt>
      <trkpt lat="50.1875" lon="1.49545">
        <ele>2.06</ele>
        <time>2014-05-29T14:00:53Z</time>
      </trkpt>
      <trkpt lat="50.1875" lon="1.49545">
        <ele>2.54</ele>
        <time>2014-05-29T14:01:16Z</time>
      </trkpt>
      <trkpt lat="50.1875" lon="1.49547">
        <ele>3.02</ele>
        <time>2014-05-29T14:01:53Z</time>
      </trkpt>
      <trkpt lat="50.1875" lon="1.49547">
        <ele>3.02</ele>
        <time>2014-05-29T14:02:24Z</time>
      </trkpt>
      <trkpt lat="50.18761" lon="1.49532">
        <ele>1.58</ele>
        <time>2014-05-29T14:02:39Z</time>
      </trkpt>
      <trkpt lat="50.18761" lon="1.49532">
        <ele>2.06</ele>
        <time>2014-05-29T14:03:04Z</time>
      </trkpt>
      <trkpt lat="50.18759" lon="1.49539">
        <ele>2.06</ele>
        <time>2014-05-29T14:03:20Z</time>
      </trkpt>
      <trkpt lat="50.18754" lon="1.49551">
        <ele>3.02</ele>
        <time>2014-05-29T14:03:30Z</time>
      </trkpt>
      <trkpt lat="50.18746" lon="1.49562">
        <ele>3.98</ele>
        <time>2014-05-29T14:03:42Z</time>
      </trkpt>
      <trkpt lat="50.18737" lon="1.49577">
        <ele>5.42</ele>
        <time>2014-05-29T14:03:52Z</time>
      </trkpt>
      <trkpt lat="50.18729" lon="1.4959">
        <ele>6.39</ele>
        <time>2014-05-29T14:04:05Z</time>
      </trkpt>
      <trkpt lat="50.18722" lon="1.49599">
        <ele>7.83</ele>
        <time>2014-05-29T14:04:19Z</time>
      </trkpt>
      <trkpt lat="50.18724" lon="1.49599">
        <ele>8.31</ele>
        <time>2014-05-29T14:05:14Z</time>
      </trkpt>
      <trkpt lat="50.18724" lon="1.49601">
        <ele>7.83</ele>
        <time>2014-05-29T14:10:47Z</time>
      </trkpt>
      <trkpt lat="50.18726" lon="1.49603">
        <ele>7.35</ele>
        <time>2014-05-29T14:11:04Z</time>
      </trkpt>
      <trkpt lat="50.18724" lon="1.49603">
        <ele>7.83</ele>
        <time>2014-05-29T14:11:25Z</time>
      </trkpt>
      <trkpt lat="50.18724" lon="1.49603">
        <ele>7.83</ele>
        <time>2014-05-29T14:11:53Z</time>
      </trkpt>
      <trkpt lat="50.18701" lon="1.49646">
        <ele>5.91</ele>
        <time>2014-05-29T14:12:11Z</time>
      </trkpt>
      <trkpt lat="50.18651" lon="1.49712">
        <ele>6.39</ele>
        <time>2014-05-29T14:12:36Z</time>
      </trkpt>
      <trkpt lat="50.18615" lon="1.49695">
        <ele>5.91</ele>
        <time>2014-05-29T14:12:51Z</time>
      </trkpt>
      <trkpt lat="50.18572" lon="1.4962">
        <ele>5.91</ele>
        <time>2014-05-29T14:13:05Z</time>
      </trkpt>
      <trkpt lat="50.18533" lon="1.49562">
        <ele>5.91</ele>
        <time>2014-05-29T14:13:17Z</time>
      </trkpt>
      <trkpt lat="50.18523" lon="1.49571">
        <ele>5.91</ele>
        <time>2014-05-29T14:13:21Z</time>
      </trkpt>
      <trkpt lat="50.1849" lon="1.49635">
        <ele>4.46</ele>
        <time>2014-05-29T14:13:34Z</time>
      </trkpt>
      <trkpt lat="50.1848" lon="1.49631">
        <ele>5.91</ele>
        <time>2014-05-29T14:13:38Z</time>
      </trkpt>
      <trkpt lat="50.18439" lon="1.49554">
        <ele>6.39</ele>
        <time>2014-05-29T14:13:56Z</time>
      </trkpt>
      <trkpt lat="50.18379" lon="1.49461">
        <ele>6.39</ele>
        <time>2014-05-29T14:14:18Z</time>
      </trkpt>
      <trkpt lat="50.18306" lon="1.49378">
        <ele>7.35</ele>
        <time>2014-05-29T14:14:39Z</time>
      </trkpt>
      <trkpt lat="50.18278" lon="1.49343">
        <ele>7.35</ele>
        <time>2014-05-29T14:14:48Z</time>
      </trkpt>
      <trkpt lat="50.18231" lon="1.49386">
        <ele>6.39</ele>
        <time>2014-05-29T14:15:04Z</time>
      </trkpt>
      <trkpt lat="50.18211" lon="1.49348">
        <ele>4.46</ele>
        <time>2014-05-29T14:15:13Z</time>
      </trkpt>
      <trkpt lat="50.18188" lon="1.493">
        <ele>2.54</ele>
        <time>2014-05-29T14:15:23Z</time>
      </trkpt>
      <trkpt lat="50.18169" lon="1.49281">
        <ele>5.91</ele>
        <time>2014-05-29T14:15:35Z</time>
      </trkpt>
      <trkpt lat="50.18119" lon="1.49328">
        <ele>-0.34</ele>
        <time>2014-05-29T14:15:50Z</time>
      </trkpt>
      <trkpt lat="50.18074" lon="1.49324">
        <ele>-1.3</ele>
        <time>2014-05-29T14:16:02Z</time>
      </trkpt>
      <trkpt lat="50.18072" lon="1.49328">
        <ele>-1.79</ele>
        <time>2014-05-29T14:16:03Z</time>
      </trkpt>
      <trkpt lat="50.18055" lon="1.49459">
        <ele>-2.27</ele>
        <time>2014-05-29T14:16:19Z</time>
      </trkpt>
      <trkpt lat="50.18027" lon="1.49665">
        <ele>-0.82</ele>
        <time>2014-05-29T14:16:42Z</time>
      </trkpt>
      <trkpt lat="50.1799" lon="1.49931">
        <ele>-0.82</ele>
        <time>2014-05-29T14:17:12Z</time>
      </trkpt>
      <trkpt lat="50.1798" lon="1.50024">
        <ele>-0.82</ele>
        <time>2014-05-29T14:17:24Z</time>
      </trkpt>
      <trkpt lat="50.17997" lon="1.50051">
        <ele>-0.82</ele>
        <time>2014-05-29T14:17:32Z</time>
      </trkpt>
      <trkpt lat="50.18001" lon="1.50051">
        <ele>-0.82</ele>
        <time>2014-05-29T14:17:33Z</time>
      </trkpt>
      <trkpt lat="50.18014" lon="1.50051">
        <ele>-1.3</ele>
        <time>2014-05-29T14:17:36Z</time>
      </trkpt>
      <trkpt lat="50.18027" lon="1.50054">
        <ele>-0.82</ele>
        <time>2014-05-29T14:17:39Z</time>
      </trkpt>
      <trkpt lat="50.18098" lon="1.50086">
        <ele>0.14</ele>
        <time>2014-05-29T14:17:56Z</time>
      </trkpt>
      <trkpt lat="50.1816" lon="1.50137">
        <ele>0.14</ele>
        <time>2014-05-29T14:18:11Z</time>
      </trkpt>
      <trkpt lat="50.18181" lon="1.50163">
        <ele>0.62</ele>
        <time>2014-05-29T14:18:17Z</time>
      </trkpt>
      <trkpt lat="50.18184" lon="1.50197">
        <ele>0.62</ele>
        <time>2014-05-29T14:18:24Z</time>
      </trkpt>
      <trkpt lat="50.18179" lon="1.50199">
        <ele>0.14</ele>
        <time>2014-05-29T14:18:25Z</time>
      </trkpt>
      <trkpt lat="50.18139" lon="1.50296">
        <ele>0.14</ele>
        <time>2014-05-29T14:18:40Z</time>
      </trkpt>
      <trkpt lat="50.181" lon="1.50395">
        <ele>0.62</ele>
        <time>2014-05-29T14:18:57Z</time>
      </trkpt>
      <trkpt lat="50.18066" lon="1.50427">
        <ele>-0.82</ele>
        <time>2014-05-29T14:19:12Z</time>
      </trkpt>
      <trkpt lat="50.18048" lon="1.50491">
        <ele>-0.34</ele>
        <time>2014-05-29T14:19:22Z</time>
      </trkpt>
      <trkpt lat="50.1799" lon="1.50661">
        <ele>0.62</ele>
        <time>2014-05-29T14:19:46Z</time>
      </trkpt>
      <trkpt lat="50.17939" lon="1.50805">
        <ele>0.62</ele>
        <time>2014-05-29T14:20:05Z</time>
      </trkpt>
      <trkpt lat="50.17864" lon="1.50929">
        <ele>1.1</ele>
        <time>2014-05-29T14:20:24Z</time>
      </trkpt>
      <trkpt lat="50.17802" lon="1.51002">
        <ele>1.1</ele>
        <time>2014-05-29T14:20:41Z</time>
      </trkpt>
      <trkpt lat="50.17782" lon="1.51026">
        <ele>1.1</ele>
        <time>2014-05-29T14:21:48Z</time>
      </trkpt>
      <trkpt lat="50.17739" lon="1.51099">
        <ele>1.58</ele>
        <time>2014-05-29T14:22:01Z</time>
      </trkpt>
      <trkpt lat="50.1766" lon="1.51212">
        <ele>1.1</ele>
        <time>2014-05-29T14:22:19Z</time>
      </trkpt>
      <trkpt lat="50.17649" lon="1.51219">
        <ele>1.1</ele>
        <time>2014-05-29T14:22:21Z</time>
      </trkpt>
      <trkpt lat="50.17555" lon="1.51242">
        <ele>1.58</ele>
        <time>2014-05-29T14:22:37Z</time>
      </trkpt>
      <trkpt lat="50.17497" lon="1.51292">
        <ele>1.58</ele>
        <time>2014-05-29T14:22:48Z</time>
      </trkpt>
      <trkpt lat="50.17428" lon="1.51427">
        <ele>1.1</ele>
        <time>2014-05-29T14:23:06Z</time>
      </trkpt>
      <trkpt lat="50.17327" lon="1.5153">
        <ele>1.1</ele>
        <time>2014-05-29T14:23:25Z</time>
      </trkpt>
      <trkpt lat="50.17319" lon="1.51543">
        <ele>1.1</ele>
        <time>2014-05-29T14:23:27Z</time>
      </trkpt>
      <trkpt lat="50.17291" lon="1.51564">
        <ele>1.1</ele>
        <time>2014-05-29T14:23:32Z</time>
      </trkpt>
      <trkpt lat="50.1722" lon="1.51562">
        <ele>0.62</ele>
        <time>2014-05-29T14:23:46Z</time>
      </trkpt>
      <trkpt lat="50.17214" lon="1.51583">
        <ele>0.62</ele>
        <time>2014-05-29T14:23:50Z</time>
      </trkpt>
      <trkpt lat="50.17227" lon="1.51755">
        <ele>-0.82</ele>
        <time>2014-05-29T14:24:10Z</time>
      </trkpt>
      <trkpt lat="50.17257" lon="1.51974">
        <ele>-0.34</ele>
        <time>2014-05-29T14:24:34Z</time>
      </trkpt>
      <trkpt lat="50.17272" lon="1.5209">
        <ele>-0.82</ele>
        <time>2014-05-29T14:24:47Z</time>
      </trkpt>
      <trkpt lat="50.17244" lon="1.52315">
        <ele>-0.34</ele>
        <time>2014-05-29T14:25:12Z</time>
      </trkpt>
      <trkpt lat="50.17233" lon="1.52504">
        <ele>-0.82</ele>
        <time>2014-05-29T14:25:34Z</time>
      </trkpt>
      <trkpt lat="50.17218" lon="1.52697">
        <ele>-0.82</ele>
        <time>2014-05-29T14:25:56Z</time>
      </trkpt>
      <trkpt lat="50.17224" lon="1.52867">
        <ele>-1.79</ele>
        <time>2014-05-29T14:26:14Z</time>
      </trkpt>
      <trkpt lat="50.17231" lon="1.5306">
        <ele>-1.79</ele>
        <time>2014-05-29T14:26:35Z</time>
      </trkpt>
      <trkpt lat="50.17261" lon="1.53236">
        <ele>-1.79</ele>
        <time>2014-05-29T14:26:55Z</time>
      </trkpt>
      <trkpt lat="50.1728" lon="1.53349">
        <ele>-1.79</ele>
        <time>2014-05-29T14:27:08Z</time>
      </trkpt>
      <trkpt lat="50.17244" lon="1.53525">
        <ele>-1.79</ele>
        <time>2014-05-29T14:27:28Z</time>
      </trkpt>
      <trkpt lat="50.17227" lon="1.53736">
        <ele>-1.3</ele>
        <time>2014-05-29T14:27:52Z</time>
      </trkpt>
      <trkpt lat="50.17233" lon="1.53925">
        <ele>-2.27</ele>
        <time>2014-05-29T14:28:13Z</time>
      </trkpt>
      <trkpt lat="50.17231" lon="1.54165">
        <ele>-1.79</ele>
        <time>2014-05-29T14:28:39Z</time>
      </trkpt>
      <trkpt lat="50.17235" lon="1.54347">
        <ele>-1.3</ele>
        <time>2014-05-29T14:28:59Z</time>
      </trkpt>
      <trkpt lat="50.17237" lon="1.54407">
        <ele>-0.82</ele>
        <time>2014-05-29T14:29:06Z</time>
      </trkpt>
      <trkpt lat="50.17207" lon="1.54596">
        <ele>-0.34</ele>
        <time>2014-05-29T14:29:28Z</time>
      </trkpt>
      <trkpt lat="50.17199" lon="1.54648">
        <ele>-0.34</ele>
        <time>2014-05-29T14:29:34Z</time>
      </trkpt>
      <trkpt lat="50.17201" lon="1.54684">
        <ele>-0.34</ele>
        <time>2014-05-29T14:29:38Z</time>
      </trkpt>
      <trkpt lat="50.17224" lon="1.54907">
        <ele>-0.82</ele>
        <time>2014-05-29T14:30:03Z</time>
      </trkpt>
      <trkpt lat="50.17242" lon="1.55139">
        <ele>-0.82</ele>
        <time>2014-05-29T14:30:29Z</time>
      </trkpt>
      <trkpt lat="50.17246" lon="1.55244">
        <ele>-1.3</ele>
        <time>2014-05-29T14:30:41Z</time>
      </trkpt>
      <trkpt lat="50.17252" lon="1.55276">
        <ele>-1.3</ele>
        <time>2014-05-29T14:30:45Z</time>
      </trkpt>
      <trkpt lat="50.17306" lon="1.55442">
        <ele>-1.79</ele>
        <time>2014-05-29T14:31:06Z</time>
      </trkpt>
      <trkpt lat="50.17336" lon="1.55472">
        <ele>-1.79</ele>
        <time>2014-05-29T14:31:13Z</time>
      </trkpt>
      <trkpt lat="50.17366" lon="1.55482">
        <ele>-2.27</ele>
        <time>2014-05-29T14:31:19Z</time>
      </trkpt>
      <trkpt lat="50.17392" lon="1.55512">
        <ele>-2.27</ele>
        <time>2014-05-29T14:31:25Z</time>
      </trkpt>
      <trkpt lat="50.17458" lon="1.5568">
        <ele>-2.27</ele>
        <time>2014-05-29T14:31:48Z</time>
      </trkpt>
      <trkpt lat="50.17508" lon="1.55793">
        <ele>-2.75</ele>
        <time>2014-05-29T14:32:04Z</time>
      </trkpt>
      <trkpt lat="50.17516" lon="1.55841">
        <ele>-2.27</ele>
        <time>2014-05-29T14:32:10Z</time>
      </trkpt>
      <trkpt lat="50.17506" lon="1.55896">
        <ele>-2.27</ele>
        <time>2014-05-29T14:32:17Z</time>
      </trkpt>
      <trkpt lat="50.17456" lon="1.56057">
        <ele>-1.79</ele>
        <time>2014-05-29T14:32:38Z</time>
      </trkpt>
      <trkpt lat="50.17407" lon="1.56169">
        <ele>-2.27</ele>
        <time>2014-05-29T14:32:54Z</time>
      </trkpt>
      <trkpt lat="50.17368" lon="1.56317">
        <ele>-2.27</ele>
        <time>2014-05-29T14:33:13Z</time>
      </trkpt>
      <trkpt lat="50.17372" lon="1.56351">
        <ele>-2.27</ele>
        <time>2014-05-29T14:33:17Z</time>
      </trkpt>
      <trkpt lat="50.17385" lon="1.56508">
        <ele>-1.79</ele>
        <time>2014-05-29T14:33:35Z</time>
      </trkpt>
      <trkpt lat="50.17364" lon="1.56688">
        <ele>-1.79</ele>
        <time>2014-05-29T14:33:57Z</time>
      </trkpt>
      <trkpt lat="50.17347" lon="1.56823">
        <ele>-2.27</ele>
        <time>2014-05-29T14:34:16Z</time>
      </trkpt>
      <trkpt lat="50.17349" lon="1.56952">
        <ele>-2.75</ele>
        <time>2014-05-29T14:34:32Z</time>
      </trkpt>
      <trkpt lat="50.17353" lon="1.57004">
        <ele>-2.75</ele>
        <time>2014-05-29T14:34:38Z</time>
      </trkpt>
      <trkpt lat="50.17327" lon="1.57087">
        <ele>-2.75</ele>
        <time>2014-05-29T14:34:49Z</time>
      </trkpt>
      <trkpt lat="50.17285" lon="1.57111">
        <ele>-2.27</ele>
        <time>2014-05-29T14:34:57Z</time>
      </trkpt>
      <trkpt lat="50.17203" lon="1.57173">
        <ele>-2.75</ele>
        <time>2014-05-29T14:35:16Z</time>
      </trkpt>
      <trkpt lat="50.17151" lon="1.57231">
        <ele>-0.82</ele>
        <time>2014-05-29T14:35:33Z</time>
      </trkpt>
      <trkpt lat="50.17151" lon="1.57233">
        <ele>-0.34</ele>
        <time>2014-05-29T14:35:50Z</time>
      </trkpt>
      <trkpt lat="50.17156" lon="1.5725">
        <ele>-0.34</ele>
        <time>2014-05-29T14:36:50Z</time>
      </trkpt>
      <trkpt lat="50.17207" lon="1.57336">
        <ele>0.62</ele>
        <time>2014-05-29T14:37:07Z</time>
      </trkpt>
      <trkpt lat="50.17319" lon="1.57493">
        <ele>1.1</ele>
        <time>2014-05-29T14:37:33Z</time>
      </trkpt>
      <trkpt lat="50.17407" lon="1.57602">
        <ele>1.58</ele>
        <time>2014-05-29T14:37:53Z</time>
      </trkpt>
      <trkpt lat="50.17533" lon="1.57753">
        <ele>1.1</ele>
        <time>2014-05-29T14:38:20Z</time>
      </trkpt>
      <trkpt lat="50.17559" lon="1.57789">
        <ele>1.1</ele>
        <time>2014-05-29T14:38:26Z</time>
      </trkpt>
      <trkpt lat="50.17566" lon="1.57821">
        <ele>1.1</ele>
        <time>2014-05-29T14:38:30Z</time>
      </trkpt>
      <trkpt lat="50.17561" lon="1.57847">
        <ele>0.62</ele>
        <time>2014-05-29T14:38:33Z</time>
      </trkpt>
      <trkpt lat="50.17563" lon="1.57886">
        <ele>0.14</ele>
        <time>2014-05-29T14:38:37Z</time>
      </trkpt>
      <trkpt lat="50.17568" lon="1.57916">
        <ele>0.14</ele>
        <time>2014-05-29T14:38:40Z</time>
      </trkpt>
      <trkpt lat="50.17563" lon="1.57978">
        <ele>0.14</ele>
        <time>2014-05-29T14:38:46Z</time>
      </trkpt>
      <trkpt lat="50.1757" lon="1.58025">
        <ele>0.14</ele>
        <time>2014-05-29T14:38:51Z</time>
      </trkpt>
      <trkpt lat="50.17589" lon="1.58079">
        <ele>0.14</ele>
        <time>2014-05-29T14:38:57Z</time>
      </trkpt>
      <trkpt lat="50.17598" lon="1.58229">
        <ele>0.14</ele>
        <time>2014-05-29T14:39:12Z</time>
      </trkpt>
      <trkpt lat="50.17606" lon="1.58454">
        <ele>-0.34</ele>
        <time>2014-05-29T14:39:34Z</time>
      </trkpt>
      <trkpt lat="50.17613" lon="1.58529">
        <ele>0.62</ele>
        <time>2014-05-29T14:39:42Z</time>
      </trkpt>
      <trkpt lat="50.17585" lon="1.58585">
        <ele>0.14</ele>
        <time>2014-05-29T14:39:50Z</time>
      </trkpt>
      <trkpt lat="50.17454" lon="1.58667">
        <ele>1.58</ele>
        <time>2014-05-29T14:40:14Z</time>
      </trkpt>
      <trkpt lat="50.17445" lon="1.58675">
        <ele>1.58</ele>
        <time>2014-05-29T14:40:16Z</time>
      </trkpt>
      <trkpt lat="50.17443" lon="1.58701">
        <ele>-0.82</ele>
        <time>2014-05-29T14:40:21Z</time>
      </trkpt>
      <trkpt lat="50.17512" lon="1.58748">
        <ele>0.14</ele>
        <time>2014-05-29T14:40:35Z</time>
      </trkpt>
      <trkpt lat="50.17531" lon="1.58783">
        <ele>0.62</ele>
        <time>2014-05-29T14:40:40Z</time>
      </trkpt>
      <trkpt lat="50.17553" lon="1.58851">
        <ele>0.62</ele>
        <time>2014-05-29T14:40:49Z</time>
      </trkpt>
      <trkpt lat="50.17576" lon="1.58871">
        <ele>0.14</ele>
        <time>2014-05-29T14:40:55Z</time>
      </trkpt>
      <trkpt lat="50.17587" lon="1.58868">
        <ele>0.14</ele>
        <time>2014-05-29T14:40:57Z</time>
      </trkpt>
      <trkpt lat="50.17609" lon="1.58892">
        <ele>-0.34</ele>
        <time>2014-05-29T14:41:03Z</time>
      </trkpt>
      <trkpt lat="50.17615" lon="1.58916">
        <ele>-0.34</ele>
        <time>2014-05-29T14:41:06Z</time>
      </trkpt>
      <trkpt lat="50.17639" lon="1.58974">
        <ele>-0.82</ele>
        <time>2014-05-29T14:41:14Z</time>
      </trkpt>
      <trkpt lat="50.1766" lon="1.59019">
        <ele>-1.3</ele>
        <time>2014-05-29T14:41:21Z</time>
      </trkpt>
      <trkpt lat="50.17684" lon="1.59021">
        <ele>-1.79</ele>
        <time>2014-05-29T14:41:27Z</time>
      </trkpt>
      <trkpt lat="50.17763" lon="1.58946">
        <ele>-2.75</ele>
        <time>2014-05-29T14:41:45Z</time>
      </trkpt>
      <trkpt lat="50.17778" lon="1.58881">
        <ele>-3.23</ele>
        <time>2014-05-29T14:41:54Z</time>
      </trkpt>
      <trkpt lat="50.17767" lon="1.58843">
        <ele>-4.19</ele>
        <time>2014-05-29T14:41:59Z</time>
      </trkpt>
      <trkpt lat="50.17765" lon="1.58828">
        <ele>-4.19</ele>
        <time>2014-05-29T14:42:01Z</time>
      </trkpt>
      <trkpt lat="50.17778" lon="1.58787">
        <ele>-3.71</ele>
        <time>2014-05-29T14:42:07Z</time>
      </trkpt>
      <trkpt lat="50.17864" lon="1.58686">
        <ele>-6.11</ele>
        <time>2014-05-29T14:42:29Z</time>
      </trkpt>
      <trkpt lat="50.17915" lon="1.58634">
        <ele>-4.19</ele>
        <time>2014-05-29T14:42:45Z</time>
      </trkpt>
      <trkpt lat="50.17924" lon="1.58645">
        <ele>-3.71</ele>
        <time>2014-05-29T14:42:50Z</time>
      </trkpt>
      <trkpt lat="50.17967" lon="1.58701">
        <ele>-3.23</ele>
        <time>2014-05-29T14:43:03Z</time>
      </trkpt>
      <trkpt lat="50.18053" lon="1.58793">
        <ele>-2.27</ele>
        <time>2014-05-29T14:43:24Z</time>
      </trkpt>
      <trkpt lat="50.18093" lon="1.58849">
        <ele>-1.3</ele>
        <time>2014-05-29T14:43:35Z</time>
      </trkpt>
      <trkpt lat="50.18104" lon="1.5886">
        <ele>-1.3</ele>
        <time>2014-05-29T14:43:38Z</time>
      </trkpt>
      <trkpt lat="50.18201" lon="1.58907">
        <ele>0.62</ele>
        <time>2014-05-29T14:44:01Z</time>
      </trkpt>
      <trkpt lat="50.18265" lon="1.58991">
        <ele>0.62</ele>
        <time>2014-05-29T14:44:19Z</time>
      </trkpt>
      <trkpt lat="50.18314" lon="1.59126">
        <ele>0.62</ele>
        <time>2014-05-29T14:44:40Z</time>
      </trkpt>
      <trkpt lat="50.18338" lon="1.59197">
        <ele>2.06</ele>
        <time>2014-05-29T14:44:57Z</time>
      </trkpt>
      <trkpt lat="50.18338" lon="1.59201">
        <ele>3.02</ele>
        <time>2014-05-29T14:47:56Z</time>
      </trkpt>
      <trkpt lat="50.18334" lon="1.59244">
        <ele>3.98</ele>
        <time>2014-05-29T14:48:05Z</time>
      </trkpt>
      <trkpt lat="50.18291" lon="1.59385">
        <ele>7.35</ele>
        <time>2014-05-29T14:48:26Z</time>
      </trkpt>
      <trkpt lat="50.18248" lon="1.59516">
        <ele>10.71</ele>
        <time>2014-05-29T14:48:48Z</time>
      </trkpt>
      <trkpt lat="50.18211" lon="1.59568">
        <ele>12.15</ele>
        <time>2014-05-29T14:49:02Z</time>
      </trkpt>
      <trkpt lat="50.18199" lon="1.59589">
        <ele>11.67</ele>
        <time>2014-05-29T14:49:07Z</time>
      </trkpt>
      <trkpt lat="50.18175" lon="1.59647">
        <ele>10.23</ele>
        <time>2014-05-29T14:49:16Z</time>
      </trkpt>
      <trkpt lat="50.18158" lon="1.59761">
        <ele>11.67</ele>
        <time>2014-05-29T14:49:30Z</time>
      </trkpt>
      <trkpt lat="50.18154" lon="1.59782">
        <ele>11.19</ele>
        <time>2014-05-29T14:49:33Z</time>
      </trkpt>
      <trkpt lat="50.18123" lon="1.59885">
        <ele>12.15</ele>
        <time>2014-05-29T14:49:47Z</time>
      </trkpt>
      <trkpt lat="50.18072" lon="1.60034">
        <ele>10.23</ele>
        <time>2014-05-29T14:50:04Z</time>
      </trkpt>
      <trkpt lat="50.1801" lon="1.60224">
        <ele>7.83</ele>
        <time>2014-05-29T14:50:26Z</time>
      </trkpt>
      <trkpt lat="50.1799" lon="1.60282">
        <ele>9.27</ele>
        <time>2014-05-29T14:50:33Z</time>
      </trkpt>
      <trkpt lat="50.17965" lon="1.60308">
        <ele>9.75</ele>
        <time>2014-05-29T14:50:38Z</time>
      </trkpt>
      <trkpt lat="50.17948" lon="1.60379">
        <ele>11.19</ele>
        <time>2014-05-29T14:50:46Z</time>
      </trkpt>
      <trkpt lat="50.17907" lon="1.60499">
        <ele>10.23</ele>
        <time>2014-05-29T14:51:00Z</time>
      </trkpt>
      <trkpt lat="50.17879" lon="1.60591">
        <ele>8.79</ele>
        <time>2014-05-29T14:51:10Z</time>
      </trkpt>
      <trkpt lat="50.17842" lon="1.60718">
        <ele>7.83</ele>
        <time>2014-05-29T14:51:24Z</time>
      </trkpt>
      <trkpt lat="50.17795" lon="1.60868">
        <ele>6.87</ele>
        <time>2014-05-29T14:51:41Z</time>
      </trkpt>
      <trkpt lat="50.17746" lon="1.6101">
        <ele>9.27</ele>
        <time>2014-05-29T14:51:57Z</time>
      </trkpt>
      <trkpt lat="50.17679" lon="1.61209">
        <ele>9.75</ele>
        <time>2014-05-29T14:52:20Z</time>
      </trkpt>
      <trkpt lat="50.1766" lon="1.61265">
        <ele>11.19</ele>
        <time>2014-05-29T14:52:28Z</time>
      </trkpt>
      <trkpt lat="50.17639" lon="1.61297">
        <ele>11.67</ele>
        <time>2014-05-29T14:52:35Z</time>
      </trkpt>
      <trkpt lat="50.17624" lon="1.61319">
        <ele>12.15</ele>
        <time>2014-05-29T14:52:40Z</time>
      </trkpt>
      <trkpt lat="50.17617" lon="1.61385">
        <ele>13.12</ele>
        <time>2014-05-29T14:52:49Z</time>
      </trkpt>
      <trkpt lat="50.17617" lon="1.61392">
        <ele>13.12</ele>
        <time>2014-05-29T14:52:50Z</time>
      </trkpt>
      <trkpt lat="50.17566" lon="1.61542">
        <ele>14.08</ele>
        <time>2014-05-29T14:53:12Z</time>
      </trkpt>
      <trkpt lat="50.17521" lon="1.61677">
        <ele>15.04</ele>
        <time>2014-05-29T14:53:29Z</time>
      </trkpt>
      <trkpt lat="50.17469" lon="1.61842">
        <ele>15.04</ele>
        <time>2014-05-29T14:53:49Z</time>
      </trkpt>
      <trkpt lat="50.17426" lon="1.61986">
        <ele>15.04</ele>
        <time>2014-05-29T14:54:08Z</time>
      </trkpt>
      <trkpt lat="50.17392" lon="1.62132">
        <ele>16.96</ele>
        <time>2014-05-29T14:54:28Z</time>
      </trkpt>
      <trkpt lat="50.17385" lon="1.62166">
        <ele>16.96</ele>
        <time>2014-05-29T14:54:33Z</time>
      </trkpt>
      <trkpt lat="50.1736" lon="1.62306">
        <ele>18.4</ele>
        <time>2014-05-29T14:54:55Z</time>
      </trkpt>
      <trkpt lat="50.17347" lon="1.62383">
        <ele>20.81</ele>
        <time>2014-05-29T14:55:11Z</time>
      </trkpt>
      <trkpt lat="50.17336" lon="1.62454">
        <ele>21.29</ele>
        <time>2014-05-29T14:55:27Z</time>
      </trkpt>
      <trkpt lat="50.17325" lon="1.62533">
        <ele>24.65</ele>
        <time>2014-05-29T14:55:44Z</time>
      </trkpt>
      <trkpt lat="50.17319" lon="1.62613">
        <ele>24.17</ele>
        <time>2014-05-29T14:55:59Z</time>
      </trkpt>
      <trkpt lat="50.17308" lon="1.62744">
        <ele>22.73</ele>
        <time>2014-05-29T14:56:17Z</time>
      </trkpt>
      <trkpt lat="50.17302" lon="1.62883">
        <ele>23.21</ele>
        <time>2014-05-29T14:56:34Z</time>
      </trkpt>
      <trkpt lat="50.173" lon="1.6305">
        <ele>23.21</ele>
        <time>2014-05-29T14:56:53Z</time>
      </trkpt>
      <trkpt lat="50.17295" lon="1.6325">
        <ele>24.65</ele>
        <time>2014-05-29T14:57:13Z</time>
      </trkpt>
      <trkpt lat="50.17295" lon="1.6342">
        <ele>24.17</ele>
        <time>2014-05-29T14:57:30Z</time>
      </trkpt>
      <trkpt lat="50.17293" lon="1.63574">
        <ele>24.17</ele>
        <time>2014-05-29T14:57:47Z</time>
      </trkpt>
      <trkpt lat="50.17285" lon="1.63593">
        <ele>24.17</ele>
        <time>2014-05-29T14:57:51Z</time>
      </trkpt>
      <trkpt lat="50.17276" lon="1.63602">
        <ele>23.69</ele>
        <time>2014-05-29T14:57:54Z</time>
      </trkpt>
      <trkpt lat="50.17282" lon="1.63662">
        <ele>24.17</ele>
        <time>2014-05-29T14:58:03Z</time>
      </trkpt>
      <trkpt lat="50.17291" lon="1.63729">
        <ele>24.17</ele>
        <time>2014-05-29T14:58:12Z</time>
      </trkpt>
      <trkpt lat="50.17291" lon="1.63913">
        <ele>19.36</ele>
        <time>2014-05-29T14:58:33Z</time>
      </trkpt>
      <trkpt lat="50.17289" lon="1.64059">
        <ele>16.48</ele>
        <time>2014-05-29T14:58:47Z</time>
      </trkpt>
      <trkpt lat="50.17289" lon="1.64213">
        <ele>14.56</ele>
        <time>2014-05-29T14:59:00Z</time>
      </trkpt>
      <trkpt lat="50.17285" lon="1.64389">
        <ele>9.75</ele>
        <time>2014-05-29T14:59:12Z</time>
      </trkpt>
      <trkpt lat="50.17282" lon="1.64439">
        <ele>10.71</ele>
        <time>2014-05-29T14:59:19Z</time>
      </trkpt>
      <trkpt lat="50.17282" lon="1.64443">
        <ele>10.71</ele>
        <time>2014-05-29T14:59:20Z</time>
      </trkpt>
      <trkpt lat="50.17289" lon="1.64452">
        <ele>10.71</ele>
        <time>2014-05-29T14:59:28Z</time>
      </trkpt>
      <trkpt lat="50.17289" lon="1.6445">
        <ele>10.71</ele>
        <time>2014-05-29T15:00:28Z</time>
      </trkpt>
      <trkpt lat="50.17293" lon="1.64454">
        <ele>10.71</ele>
        <time>2014-05-29T15:00:31Z</time>
      </trkpt>
      <trkpt lat="50.17306" lon="1.64452">
        <ele>11.19</ele>
        <time>2014-05-29T15:00:36Z</time>
      </trkpt>
      <trkpt lat="50.17345" lon="1.64424">
        <ele>15.04</ele>
        <time>2014-05-29T15:00:55Z</time>
      </trkpt>
      <trkpt lat="50.17383" lon="1.64407">
        <ele>16.96</ele>
        <time>2014-05-29T15:01:14Z</time>
      </trkpt>
      <trkpt lat="50.17428" lon="1.64385">
        <ele>18.4</ele>
        <time>2014-05-29T15:01:35Z</time>
      </trkpt>
      <trkpt lat="50.1743" lon="1.64385">
        <ele>18.4</ele>
        <time>2014-05-29T15:01:36Z</time>
      </trkpt>
      <trkpt lat="50.17428" lon="1.64338">
        <ele>16.96</ele>
        <time>2014-05-29T15:01:50Z</time>
      </trkpt>
      <trkpt lat="50.17422" lon="1.64336">
        <ele>17.44</ele>
        <time>2014-05-29T15:02:02Z</time>
      </trkpt>
    </trkseg>
  </trk>
</gpx>